createdAt,value
2022-07-26T00:01:55.987Z,3.08
2022-07-26T00:04:00.974Z,3.40
2022-07-26T00:08:13.442Z,3.17
2022-07-26T00:10:20.743Z,2.65
2022-07-26T00:12:25.859Z,3.13
2022-07-26T00:14:30.797Z,2.78
2022-07-26T00:16:39.353Z,2.70
2022-07-26T00:18:44.861Z,2.92
2022-07-26T00:20:49.993Z,2.50
2022-07-26T00:22:55.435Z,2.42
2022-07-26T00:27:05.018Z,2.78
2022-07-26T00:29:10.302Z,3.03
2022-07-26T00:31:15.661Z,2.55
2022-07-26T00:35:28.334Z,3.00
2022-07-26T00:37:33.728Z,2.70
2022-07-26T00:39:38.677Z,3.50
2022-07-26T00:41:43.587Z,2.70
2022-07-26T00:43:59.477Z,2.53
2022-07-26T00:46:04.909Z,2.92
2022-07-26T00:48:10.206Z,2.80
2022-07-26T00:50:21.800Z,2.40
2022-07-26T00:52:26.959Z,2.60
2022-07-26T00:56:37.366Z,2.65
2022-07-26T00:58:42.230Z,2.97
2022-07-26T01:00:49.845Z,2.83
2022-07-26T01:02:54.810Z,2.63
2022-07-26T01:04:59.841Z,3.20
2022-07-26T01:07:14.770Z,2.70
2022-07-26T01:09:21.809Z,3.63
2022-07-26T01:11:26.653Z,2.60
2022-07-26T01:13:35.087Z,2.80
2022-07-26T01:15:40.872Z,2.90
2022-07-26T01:17:47.493Z,2.58
2022-07-26T01:19:52.352Z,2.88
2022-07-26T01:21:59.892Z,2.70
2022-07-26T01:24:05.497Z,2.63
2022-07-26T01:26:11.343Z,2.20
2022-07-26T01:28:19.617Z,2.30
2022-07-26T01:30:25.132Z,2.15
2022-07-26T01:32:29.976Z,2.28
2022-07-26T01:34:35.424Z,2.33
2022-07-26T01:36:40.252Z,2.90
2022-07-26T01:38:48.058Z,2.45
2022-07-26T01:40:52.921Z,2.15
2022-07-26T01:42:57.855Z,2.50
2022-07-26T01:45:02.822Z,2.75
2022-07-26T01:49:12.622Z,2.70
2022-07-26T01:51:17.780Z,2.83
2022-07-26T01:55:32.063Z,2.63
2022-07-26T01:57:37.939Z,2.72
2022-07-26T01:59:42.883Z,3.35
2022-07-26T02:01:47.897Z,2.50
2022-07-26T02:03:52.902Z,2.40
2022-07-26T02:05:57.746Z,3.00
2022-07-26T02:08:02.706Z,2.53
2022-07-26T02:10:08.739Z,2.60
2022-07-26T02:12:21.618Z,2.92
2022-07-26T02:14:28.026Z,2.92
2022-07-26T02:16:33.072Z,2.70
2022-07-26T02:18:38.429Z,2.70
2022-07-26T02:20:43.382Z,2.92
2022-07-26T02:22:48.242Z,2.60
2022-07-26T02:24:53.396Z,2.63
2022-07-26T02:26:58.601Z,2.35
2022-07-26T02:31:11.678Z,2.60
2022-07-26T02:33:21.525Z,2.55
2022-07-26T02:35:26.475Z,3.08
2022-07-26T02:37:31.341Z,2.92
2022-07-26T02:39:41.410Z,2.78
2022-07-26T02:41:46.494Z,2.22
2022-07-26T02:43:51.338Z,2.70
2022-07-26T02:46:01.727Z,2.90
2022-07-26T02:48:07.691Z,2.53
2022-07-26T02:50:13.511Z,2.75
2022-07-26T02:52:18.444Z,2.60
2022-07-26T02:54:23.312Z,3.20
2022-07-26T02:56:28.340Z,2.58
2022-07-26T03:00:37.836Z,2.78
2022-07-26T03:02:45.624Z,2.83
2022-07-26T03:04:50.533Z,2.70
2022-07-26T03:06:55.454Z,2.78
2022-07-26T03:09:00.357Z,2.70
2022-07-26T03:11:08.990Z,3.03
2022-07-26T03:13:16.758Z,2.85
2022-07-26T03:17:26.563Z,2.13
2022-07-26T03:19:34.090Z,2.70
2022-07-26T03:21:39.031Z,1.80
2022-07-26T03:23:43.846Z,2.50
2022-07-26T03:25:48.667Z,2.60
2022-07-26T03:27:53.582Z,2.42
2022-07-26T03:29:59.065Z,2.83
2022-07-26T03:34:08.992Z,2.47
2022-07-26T03:36:16.687Z,2.50
2022-07-26T03:38:21.626Z,2.63
2022-07-26T03:42:31.126Z,2.22
2022-07-26T03:44:35.999Z,2.08
2022-07-26T03:46:40.958Z,2.30
2022-07-26T03:50:53.573Z,2.50
2022-07-26T03:53:01.039Z,1.90
2022-07-26T03:55:26.375Z,2.47
2022-07-26T03:57:28.671Z,2.30
2022-07-26T03:59:33.536Z,2.58
2022-07-26T04:01:41.827Z,2.15
2022-07-26T04:03:47.908Z,2.03
2022-07-26T04:05:52.955Z,2.45
2022-07-26T04:08:00.428Z,2.15
2022-07-26T04:10:05.402Z,2.80
2022-07-26T04:12:10.410Z,2.22
2022-07-26T04:16:20.088Z,1.98
2022-07-26T04:20:29.773Z,2.75
2022-07-26T04:22:34.652Z,2.70
2022-07-26T04:24:42.083Z,2.35
2022-07-26T04:26:46.997Z,2.03
2022-07-26T04:28:52.095Z,2.10
2022-07-26T04:33:01.662Z,2.28
2022-07-26T04:35:07.044Z,2.33
2022-07-26T04:37:11.933Z,2.50
2022-07-26T04:39:16.901Z,2.35
2022-07-26T04:43:29.377Z,2.38
2022-07-26T04:45:34.258Z,2.35
2022-07-26T04:47:39.404Z,2.10
2022-07-26T04:49:44.640Z,2.53
2022-07-26T04:51:49.519Z,2.45
2022-07-26T04:53:54.386Z,2.47
2022-07-26T04:55:59.243Z,2.97
2022-07-26T04:58:06.842Z,2.00
2022-07-26T05:00:23.764Z,2.03
2022-07-26T05:02:29.249Z,2.50
2022-07-26T05:06:39.157Z,2.30
2022-07-26T05:08:44.393Z,2.50
2022-07-26T05:10:55.220Z,2.20
2022-07-26T05:13:01.049Z,1.60
2022-07-26T05:15:14.051Z,2.00
2022-07-26T05:17:19.486Z,2.08
2022-07-26T05:19:24.768Z,2.67
2022-07-26T05:21:30.310Z,2.28
2022-07-26T05:23:35.270Z,2.22
2022-07-26T05:25:41.621Z,2.60
2022-07-26T05:27:47.091Z,2.22
2022-07-26T05:29:52.009Z,2.33
2022-07-26T05:31:59.468Z,1.85
2022-07-26T05:34:04.431Z,1.70
2022-07-26T05:36:09.905Z,1.80
2022-07-26T05:38:17.228Z,2.40
2022-07-26T05:40:22.615Z,2.90
2022-07-26T05:42:28.184Z,2.35
2022-07-26T05:44:33.069Z,2.28
2022-07-26T05:46:37.949Z,1.90
2022-07-26T05:50:50.317Z,2.85
2022-07-26T05:52:55.193Z,2.58
2022-07-26T05:55:00.033Z,2.22
2022-07-26T05:57:05.034Z,2.60
2022-07-26T05:59:09.871Z,2.75
2022-07-26T06:01:14.720Z,3.08
2022-07-26T06:03:26.005Z,2.90
2022-07-26T06:05:33.556Z,2.80
2022-07-26T06:07:38.526Z,2.58
2022-07-26T06:11:48.261Z,2.05
2022-07-26T06:13:56.575Z,1.90
2022-07-26T06:16:01.596Z,2.63
2022-07-26T06:18:06.659Z,1.95
2022-07-26T06:22:21.296Z,2.27
2022-07-26T06:24:26.452Z,1.77
2022-07-26T06:26:31.362Z,2.78
2022-07-26T06:28:38.609Z,2.20
2022-07-26T06:30:43.566Z,2.20
2022-07-26T06:32:51.312Z,2.78
2022-07-26T06:34:56.141Z,2.03
2022-07-26T06:37:01.201Z,1.95
2022-07-26T06:41:13.452Z,2.25
2022-07-26T06:43:18.530Z,2.63
2022-07-26T06:47:29.031Z,2.75
2022-07-26T06:49:33.915Z,2.40
2022-07-26T06:51:39.004Z,2.25
2022-07-26T06:53:44.442Z,2.17
2022-07-26T06:55:51.981Z,2.15
2022-07-26T06:57:56.800Z,2.60
2022-07-26T07:00:01.700Z,2.47
2022-07-26T07:02:06.933Z,2.50
2022-07-26T07:04:12.219Z,2.58
2022-07-26T07:06:20.008Z,2.40
2022-07-26T07:08:25.000Z,2.22
2022-07-26T07:10:30.019Z,2.10
2022-07-26T07:12:37.623Z,1.77
2022-07-26T07:14:42.861Z,2.00
2022-07-26T07:16:47.798Z,1.83
2022-07-26T07:20:57.431Z,1.85
2022-07-26T07:23:02.307Z,2.30
2022-07-26T07:25:08.205Z,2.05
2022-07-26T07:27:13.448Z,2.00
2022-07-26T07:29:23.266Z,1.65
2022-07-26T07:31:28.815Z,1.58
2022-07-26T07:33:43.690Z,2.15
2022-07-26T07:35:57.785Z,1.60
2022-07-26T07:38:03.220Z,1.55
2022-07-26T07:42:13.571Z,1.55
2022-07-26T07:44:19.567Z,1.58
2022-07-26T07:46:31.410Z,2.20
2022-07-26T07:48:36.468Z,1.75
2022-07-26T07:50:41.349Z,1.58
2022-07-26T07:52:46.334Z,1.30
2022-07-26T07:54:56.193Z,1.90
2022-07-26T07:57:11.503Z,1.40
2022-07-26T07:59:18.576Z,1.23
2022-07-26T08:01:39.479Z,1.88
2022-07-26T08:03:45.759Z,1.70
2022-07-26T08:05:55.620Z,1.88
2022-07-26T08:10:05.757Z,1.67
2022-07-26T08:12:20.114Z,1.48
2022-07-26T08:14:24.943Z,1.73
2022-07-26T08:16:32.889Z,1.80
2022-07-26T08:18:53.383Z,2.40
2022-07-26T08:21:03.478Z,1.77
2022-07-26T08:23:08.949Z,1.90
2022-07-26T08:25:13.847Z,1.52
2022-07-26T08:27:18.724Z,1.60
2022-07-26T08:29:23.608Z,2.10
2022-07-26T08:31:33.954Z,1.67
2022-07-26T08:33:40.549Z,1.63
2022-07-26T08:35:46.050Z,1.63
2022-07-26T08:39:56.062Z,1.35
2022-07-26T08:42:01.949Z,1.80
2022-07-26T08:44:10.995Z,1.80
2022-07-26T08:46:16.009Z,1.70
2022-07-26T08:50:29.610Z,1.70
2022-07-26T08:52:34.619Z,1.50
2022-07-26T08:54:39.987Z,1.60
2022-07-26T08:56:53.973Z,1.77
2022-07-26T08:58:58.939Z,1.65
2022-07-26T09:01:09.075Z,1.30
2022-07-26T09:03:32.106Z,2.05
2022-07-26T09:05:40.048Z,1.60
2022-07-26T09:07:45.380Z,1.25
2022-07-26T09:10:00.781Z,1.88
2022-07-26T09:12:20.495Z,1.90
2022-07-26T09:14:25.829Z,1.63
2022-07-26T09:16:34.953Z,1.52
2022-07-26T09:18:44.923Z,1.88
2022-07-26T09:20:50.775Z,1.42
2022-07-26T09:23:05.114Z,1.63
2022-07-26T09:25:26.174Z,1.75
2022-07-26T09:27:38.732Z,2.25
2022-07-26T09:29:48.511Z,2.17
2022-07-26T09:31:53.436Z,1.83
2022-07-26T09:34:01.086Z,1.70
2022-07-26T09:36:08.743Z,1.40
2022-07-26T09:38:17.363Z,1.73
2022-07-26T09:40:22.519Z,1.25
2022-07-26T09:42:29.674Z,1.75
2022-07-26T09:44:34.886Z,1.30
2022-07-26T09:46:56.537Z,1.58
2022-07-26T09:49:22.327Z,2.20
2022-07-26T09:51:49.147Z,2.10
2022-07-26T09:53:53.939Z,1.73
2022-07-26T09:56:00.089Z,1.98
2022-07-26T09:58:06.630Z,1.85
2022-07-26T10:00:13.065Z,1.83
2022-07-26T10:02:18.731Z,1.90
2022-07-26T10:04:27.338Z,1.77
2022-07-26T10:06:32.224Z,2.10
2022-07-26T10:08:37.354Z,1.80
2022-07-26T10:10:46.627Z,1.73
2022-07-26T10:12:54.538Z,1.42
2022-07-26T10:15:00.167Z,1.70
2022-07-26T10:19:10.573Z,1.98
2022-07-26T10:21:30.409Z,1.67
2022-07-26T10:23:40.027Z,1.98
2022-07-26T10:25:50.424Z,1.60
2022-07-26T10:27:58.051Z,1.67
2022-07-26T10:30:33.332Z,1.50
2022-07-26T10:32:39.656Z,2.03
2022-07-26T10:34:45.044Z,1.30
2022-07-26T10:37:01.051Z,1.42
2022-07-26T10:39:14.885Z,1.20
2022-07-26T10:41:37.892Z,1.30
2022-07-26T10:43:45.843Z,1.67
2022-07-26T10:45:51.886Z,1.40
2022-07-26T10:48:16.721Z,1.30
2022-07-26T10:50:34.793Z,1.33
2022-07-26T10:53:01.677Z,1.40
2022-07-26T10:55:13.593Z,1.70
2022-07-26T10:57:21.602Z,1.40
2022-07-26T10:59:55.239Z,1.33
2022-07-26T11:02:01.630Z,1.60
2022-07-26T11:04:22.648Z,1.17
2022-07-26T11:06:32.967Z,1.80
2022-07-26T11:08:48.129Z,1.13
2022-07-26T11:10:55.914Z,1.27
2022-07-26T11:13:09.686Z,1.20
2022-07-26T11:15:25.560Z,1.20
2022-07-26T11:17:32.841Z,1.42
2022-07-26T11:19:46.325Z,1.88
2022-07-26T11:22:03.092Z,1.35
2022-07-26T11:24:11.460Z,1.05
2022-07-26T11:26:20.593Z,1.40
2022-07-26T11:28:25.513Z,1.05
2022-07-26T11:30:33.975Z,1.25
2022-07-26T11:32:39.046Z,1.27
2022-07-26T11:34:45.707Z,1.30
2022-07-26T11:36:51.248Z,1.25
2022-07-26T11:39:10.568Z,0.98
2022-07-26T11:41:34.457Z,0.80
2022-07-26T11:43:40.693Z,1.67
2022-07-26T11:45:51.935Z,1.38
2022-07-26T11:48:02.718Z,1.27
2022-07-26T11:50:21.874Z,1.83
2022-07-26T11:52:36.151Z,3.35
2022-07-26T11:54:48.133Z,0.93
2022-07-26T11:56:59.779Z,1.40
2022-07-26T11:59:07.363Z,2.22
2022-07-26T12:01:22.101Z,3.53
2022-07-26T12:03:26.966Z,2.45
2022-07-26T12:05:35.658Z,1.30
2022-07-26T12:07:40.639Z,1.00
2022-07-26T12:11:55.836Z,1.00
2022-07-26T12:14:06.206Z,1.30
2022-07-26T12:16:19.579Z,0.88
2022-07-26T12:18:28.159Z,1.20
2022-07-26T12:20:33.892Z,1.25
2022-07-26T12:22:46.408Z,0.80
2022-07-26T12:25:02.000Z,0.90
2022-07-26T12:29:35.629Z,1.67
2022-07-26T12:31:40.558Z,0.90
2022-07-26T12:36:01.221Z,1.30
2022-07-26T12:38:06.336Z,1.10
2022-07-26T12:40:16.213Z,1.20
2022-07-26T12:42:34.121Z,1.00
2022-07-26T12:44:39.593Z,1.33
2022-07-26T12:48:50.307Z,1.10
2022-07-26T12:50:55.245Z,0.95
2022-07-26T12:55:10.406Z,0.90
2022-07-26T12:57:15.312Z,0.95
2022-07-26T13:01:30.133Z,1.08
2022-07-26T13:03:35.152Z,1.75
2022-07-26T13:05:40.030Z,1.40
2022-07-26T13:10:08.269Z,1.15
2022-07-26T13:12:16.994Z,0.95
2022-07-26T13:14:24.455Z,1.05
2022-07-26T13:16:29.398Z,1.23
2022-07-26T13:20:40.040Z,0.90
2022-07-26T13:22:44.900Z,1.20
2022-07-26T13:26:54.908Z,1.23
2022-07-26T13:29:00.345Z,1.60
2022-07-26T13:31:08.541Z,0.95
2022-07-26T13:33:16.764Z,1.02
2022-07-26T13:35:24.604Z,1.10
2022-07-26T13:37:29.896Z,1.10
2022-07-26T13:39:34.715Z,1.00
2022-07-26T13:41:39.757Z,1.00
2022-07-26T13:45:49.333Z,1.15
2022-07-26T13:50:01.391Z,0.90
2022-07-26T13:52:15.550Z,1.10
2022-07-26T13:54:22.529Z,0.85
2022-07-26T13:56:27.428Z,1.27
2022-07-26T14:00:37.663Z,1.05
2022-07-26T14:04:50.518Z,1.23
2022-07-26T14:06:55.674Z,1.05
2022-07-26T14:09:00.678Z,1.33
2022-07-26T14:11:05.589Z,0.50
2022-07-26T14:15:21.207Z,0.85
2022-07-26T14:17:27.304Z,0.73
2022-07-26T14:21:48.968Z,0.63
2022-07-26T14:24:05.400Z,0.60
2022-07-26T14:26:10.240Z,1.27
2022-07-26T14:30:19.937Z,0.90
2022-07-26T14:32:24.803Z,0.70
2022-07-26T14:36:34.478Z,0.70
2022-07-26T14:40:47.697Z,0.60
2022-07-26T14:42:52.639Z,0.77
2022-07-26T14:44:57.509Z,0.70
2022-07-26T14:49:11.999Z,1.08
2022-07-26T14:53:22.378Z,0.73
2022-07-26T14:55:29.954Z,0.70
2022-07-26T14:57:39.059Z,0.77
2022-07-26T14:59:44.871Z,0.50
2022-07-26T15:03:54.376Z,0.63
2022-07-26T15:08:06.219Z,0.70
2022-07-26T15:10:13.164Z,0.55
2022-07-26T15:12:21.700Z,0.55
2022-07-26T15:14:28.488Z,0.60
2022-07-26T15:16:33.782Z,2.08
2022-07-26T15:18:38.810Z,0.70
2022-07-26T15:20:44.501Z,0.70
2022-07-26T15:22:51.609Z,0.60
2022-07-26T15:24:56.482Z,0.80
2022-07-26T15:27:01.531Z,0.60
2022-07-26T15:29:08.952Z,0.68
2022-07-26T15:31:14.009Z,0.50
2022-07-26T15:33:20.679Z,0.70
2022-07-26T15:35:25.616Z,0.90
2022-07-26T15:37:30.625Z,0.88
2022-07-26T15:39:35.944Z,0.40
2022-07-26T15:41:41.056Z,0.90
2022-07-26T15:43:48.811Z,0.80
2022-07-26T15:46:05.470Z,0.70
2022-07-26T15:48:16.076Z,0.93
2022-07-26T15:50:23.166Z,0.63
2022-07-26T15:52:28.072Z,0.98
2022-07-26T15:54:33.087Z,0.75
2022-07-26T15:56:38.018Z,0.70
2022-07-26T15:58:42.868Z,0.70
2022-07-26T16:00:51.118Z,0.68
2022-07-26T16:02:58.574Z,0.88
2022-07-26T16:05:03.480Z,0.90
2022-07-26T16:07:08.685Z,0.65
2022-07-26T16:09:17.306Z,0.80
2022-07-26T16:11:23.474Z,1.00
2022-07-26T16:13:28.337Z,1.00
2022-07-26T16:15:33.232Z,0.70
2022-07-26T16:17:38.226Z,1.00
2022-07-26T16:19:45.873Z,0.90
2022-07-26T16:21:50.757Z,0.70
2022-07-26T16:23:55.638Z,0.95
2022-07-26T16:26:00.577Z,0.80
2022-07-26T16:28:06.192Z,0.50
2022-07-26T16:30:12.522Z,0.70
2022-07-26T16:32:21.290Z,0.75
2022-07-26T16:34:26.765Z,0.80
2022-07-26T16:36:34.115Z,0.93
2022-07-26T16:38:38.953Z,0.80
2022-07-26T16:42:48.439Z,1.00
2022-07-26T16:46:58.926Z,0.80
2022-07-26T16:49:03.823Z,0.80
2022-07-26T16:51:09.958Z,0.90
2022-07-26T16:55:26.302Z,1.70
2022-07-26T16:57:31.098Z,2.20
2022-07-26T16:59:35.988Z,1.40
2022-07-26T17:01:43.566Z,0.93
2022-07-26T17:03:48.465Z,0.93
2022-07-26T17:07:58.223Z,1.10
2022-07-26T17:10:07.562Z,1.40
2022-07-26T17:12:12.729Z,1.02
2022-07-26T17:14:20.715Z,1.00
2022-07-26T17:16:25.611Z,0.73
2022-07-26T17:20:35.147Z,1.10
2022-07-26T17:24:44.640Z,1.10
2022-07-26T17:28:56.756Z,0.85
2022-07-26T17:31:01.557Z,1.00
2022-07-26T17:33:06.745Z,0.75
2022-07-26T17:35:12.089Z,0.98
2022-07-26T17:37:17.149Z,1.00
2022-07-26T17:39:28.349Z,1.00
2022-07-26T17:41:53.736Z,1.00
2022-07-26T17:43:58.750Z,1.60
2022-07-26T17:48:09.187Z,1.30
2022-07-26T17:50:35.243Z,1.30
2022-07-26T17:52:39.160Z,0.90
2022-07-26T17:54:44.079Z,1.17
2022-07-26T17:56:49.714Z,0.80
2022-07-26T17:58:57.156Z,1.02
2022-07-26T18:01:02.052Z,1.45
2022-07-26T18:05:12.859Z,0.73
2022-07-26T18:07:20.950Z,1.10
2022-07-26T18:09:25.986Z,0.88
2022-07-26T18:13:35.617Z,1.17
2022-07-26T18:15:43.367Z,0.98
2022-07-26T18:17:48.335Z,1.00
2022-07-26T18:21:59.195Z,0.75
2022-07-26T18:24:16.927Z,0.80
2022-07-26T18:26:22.036Z,1.02
2022-07-26T18:30:32.264Z,1.00
2022-07-26T18:32:39.812Z,0.60
2022-07-26T18:34:51.556Z,0.80
2022-07-26T18:36:57.679Z,1.10
2022-07-26T18:39:02.727Z,0.80
2022-07-26T18:41:07.693Z,1.00
2022-07-26T18:43:12.691Z,0.85
2022-07-26T18:47:25.486Z,0.85
2022-07-26T18:49:34.202Z,0.80
2022-07-26T18:51:41.046Z,0.80
2022-07-26T18:53:46.595Z,0.70
2022-07-26T18:55:51.716Z,0.75
2022-07-26T18:57:56.728Z,0.85
2022-07-26T19:00:01.635Z,0.70
2022-07-26T19:02:06.671Z,1.00
2022-07-26T19:06:18.919Z,0.90
2022-07-26T19:08:23.762Z,1.27
2022-07-26T19:10:28.661Z,1.10
2022-07-26T19:12:33.575Z,1.02
2022-07-26T19:14:38.547Z,1.10
2022-07-26T19:16:43.656Z,1.52
2022-07-26T19:18:50.804Z,1.27
2022-07-26T19:20:57.748Z,2.03
2022-07-26T19:25:14.796Z,1.10
2022-07-26T19:27:19.840Z,1.20
2022-07-26T19:29:25.317Z,0.80
2022-07-26T19:31:32.366Z,0.90
2022-07-26T19:33:41.085Z,1.00
2022-07-26T19:35:45.989Z,1.30
2022-07-26T19:37:51.495Z,0.90
2022-07-26T19:40:01.002Z,1.00
2022-07-26T19:42:05.937Z,1.00
2022-07-26T19:44:10.908Z,0.90
2022-07-26T19:46:15.935Z,0.95
2022-07-26T19:50:26.116Z,1.03
2022-07-26T19:52:31.414Z,0.90
2022-07-26T19:54:36.448Z,0.93
2022-07-26T19:58:49.492Z,0.88
2022-07-26T20:00:54.488Z,0.98
2022-07-26T20:02:59.381Z,0.93
2022-07-26T20:07:09.034Z,1.45
2022-07-26T20:09:14.300Z,0.70
2022-07-26T20:11:22.850Z,1.40
2022-07-26T20:13:30.413Z,1.23
2022-07-26T20:15:35.340Z,1.50
2022-07-26T20:17:41.493Z,1.33
2022-07-26T20:19:46.482Z,1.40
2022-07-26T20:23:56.032Z,1.20
2022-07-26T20:26:00.947Z,1.45
2022-07-26T20:28:06.361Z,1.20
2022-07-26T20:30:14.964Z,1.70
2022-07-26T20:32:20.351Z,1.20
2022-07-26T20:34:25.257Z,1.40
2022-07-26T20:36:30.115Z,1.50
2022-07-26T20:38:35.196Z,1.27
2022-07-26T20:42:44.866Z,1.85
2022-07-26T20:44:52.853Z,1.80
2022-07-26T20:47:00.478Z,1.77
2022-07-26T20:49:05.368Z,1.48
2022-07-26T20:51:13.735Z,1.80
2022-07-26T20:53:18.904Z,1.75
2022-07-26T20:57:29.095Z,1.52
2022-07-26T20:59:35.105Z,1.08
2022-07-26T21:01:40.519Z,0.90
2022-07-26T21:03:51.790Z,1.40
2022-07-26T21:05:56.669Z,1.23
2022-07-26T21:08:01.587Z,1.23
2022-07-26T21:10:07.230Z,1.05
2022-07-26T21:12:12.943Z,1.02
2022-07-26T21:14:17.989Z,1.60
2022-07-26T21:16:23.930Z,1.67
2022-07-26T21:18:30.056Z,1.40
2022-07-26T21:20:37.657Z,1.50
2022-07-26T21:22:42.524Z,1.30
2022-07-26T21:24:47.427Z,1.48
2022-07-26T21:26:52.385Z,1.25
2022-07-26T21:28:57.637Z,1.35
2022-07-26T21:31:02.504Z,0.82
2022-07-26T21:33:07.997Z,1.05
2022-07-26T21:35:12.985Z,0.80
2022-07-26T21:37:20.848Z,1.08
2022-07-26T21:39:25.781Z,0.93
2022-07-26T21:43:35.386Z,1.20
2022-07-26T21:45:41.152Z,1.10
2022-07-26T21:49:50.750Z,1.13
2022-07-26T21:51:55.667Z,1.23
2022-07-26T21:56:08.415Z,1.20
2022-07-26T22:00:21.044Z,1.00
2022-07-26T22:02:26.029Z,1.30
2022-07-26T22:06:35.884Z,1.20
2022-07-26T22:08:40.942Z,1.05
2022-07-26T22:12:53.698Z,1.25
2022-07-26T22:14:58.571Z,1.20
2022-07-26T22:17:03.561Z,1.25
2022-07-26T22:19:08.924Z,0.90
2022-07-26T22:21:14.307Z,1.10
2022-07-26T22:23:20.325Z,1.30
2022-07-26T22:25:25.392Z,1.45
2022-07-26T22:29:39.934Z,1.42
2022-07-26T22:31:45.139Z,1.92
2022-07-26T22:33:50.059Z,1.42
2022-07-26T22:35:55.409Z,1.60
2022-07-26T22:38:05.036Z,1.88
2022-07-26T22:40:11.136Z,1.55
2022-07-26T22:42:16.321Z,1.10
2022-07-26T22:44:24.074Z,1.60
2022-07-26T22:46:29.363Z,2.10
2022-07-26T22:48:38.110Z,1.83
2022-07-26T22:50:44.330Z,1.80
2022-07-26T22:52:49.259Z,1.63
2022-07-26T22:54:54.112Z,1.70
2022-07-26T22:56:58.981Z,1.50
2022-07-26T22:59:03.975Z,1.40
2022-07-26T23:01:11.615Z,1.98
2022-07-26T23:03:19.999Z,1.67
2022-07-26T23:05:36.040Z,2.35
2022-07-26T23:07:50.623Z,1.40
2022-07-26T23:09:55.940Z,1.90
2022-07-26T23:12:00.881Z,1.75
2022-07-26T23:14:05.787Z,1.77
2022-07-26T23:16:13.466Z,1.92
2022-07-26T23:18:20.844Z,1.98
2022-07-26T23:20:25.753Z,1.90
2022-07-26T23:22:30.672Z,1.67
2022-07-26T23:24:35.560Z,1.92
2022-07-26T23:26:40.957Z,1.73
2022-07-26T23:28:45.779Z,1.55
2022-07-26T23:30:50.678Z,2.15
2022-07-26T23:32:58.145Z,1.85
2022-07-26T23:35:02.965Z,1.60
2022-07-26T23:37:07.891Z,2.13
2022-07-26T23:39:13.178Z,1.70
2022-07-26T23:41:19.086Z,1.80
2022-07-26T23:43:24.041Z,1.83
2022-07-26T23:45:28.906Z,1.92
2022-07-26T23:47:33.959Z,1.92
2022-07-26T23:49:41.424Z,2.15
2022-07-26T23:51:48.426Z,1.95
2022-07-26T23:53:53.804Z,1.70
2022-07-26T23:55:58.771Z,1.92
2022-07-26T23:58:04.807Z,1.90
